首页
METAR-TAF:

METAR-TAF

机场 :

Roswell International Air Center

羅斯維爾, 新墨西哥州, 美国

纬度: 33-18-29N, 经度: 104-30-28W, 海拔: 1118米

当前天气观测

该预报发布于25分钟前的15:51 UTC
风速10节,风向
温度 30°C
湿度 38%
气压 1018 hPa
能見度: 16.1公里
天空无云

METAR: KROW 241551Z 19010KT 10SM CLR 30/14 A3006 RMK AO2 SLP102 T03000139

时间: 10:16 (16:16 UTC)

预报

该预报发布于4小时和56分钟前的11:20 UTC
预报有效从24日的 12点(UTC)到 25日的 12点(UTC)
风速6节,风向
能見度: 10公里
天空无云
从 24日的 1700点(UTC)
风速11节,风向南转南东,有时为18节阵风
能見度: 10公里
少量云层高于12000英尺
从 24日的 2200点(UTC)
风速9节,风向南转南东
能見度: 10公里
少量云层高于12000英尺
散云层高于20000英尺

TAF: KROW 241120Z 2412/2512 18006KT P6SM SKC FM241700 16011G18KT P6SM FEW120 FM242200 16009KT P6SM FEW120 SCT200

超过4000个机场的气象观测和天气预报(METAR&TAF报告)。

可查询的气象台以黄色和红色小点在地图上表示。

将鼠标移到小点上方,可查看气象台名称。

然后点击查看天气观测和预报。

如需切换地图:点击带黑十字的绿色按钮放大地图;点击带横线的绿色按钮缩小地图;或者点击绿色箭头查看邻近地区的地图。


METAR-TAF: